| Date | Time | Temp. (oF) | Dew Point (oF) | Rel. Hum. (%) | Press. (in.) | Wind Dir. | Wind Speed (mph) | Hourly Rainfall (in.) |
|
|---|---|---|---|---|---|---|---|---|---|
| 1 | 04/13 | 00:00 | 49 | 36 | 62 | 30.36 | NE | 1 | 0.00 |
| 2 | 04/12 | 23:00 | 49 | 36 | 61 | 30.33 | SSE | 0 | 0.00 |
| 3 | 04/12 | 22:00 | 52 | 34 | 52 | 30.32 | SE | 0 | 0.00 |
| 4 | 04/12 | 21:00 | 55 | 29 | 38 | 30.31 | SE | 0 | 0.00 |
| 5 | 04/12 | 20:00 | 59 | 29 | 33 | 30.29 | SE | 1 | 0.00 |
| 6 | 04/12 | 19:00 | 64 | 29 | 28 | 30.28 | NNE | 2 | 0.00 |
| 7 | 04/12 | 18:00 | 65 | 29 | 27 | 30.27 | NNE | 7 | 0.00 |
| 8 | 04/12 | 17:00 | 65 | 29 | 27 | 30.27 | NW | 5 | 0.00 |
| 9 | 04/12 | 16:00 | 66 | 32 | 29 | 30.29 | WNW | 13 | 0.00 |
| 10 | 04/12 | 15:00 | 66 | 33 | 30 | 30.30 | NNW | 8 | 0.00 |
| 11 | 04/12 | 14:00 | 65 | 34 | 33 | 30.31 | NNW | 5 | 0.00 |
| 12 | 04/12 | 13:00 | 64 | 34 | 33 | 30.33 | W | 3 | 0.00 |
| 13 | 04/12 | 12:00 | 64 | 33 | 32 | 30.36 | NNW | 6 | 0.00 |
| 14 | 04/12 | 11:00 | 62 | 34 | 36 | 30.37 | NNE | 7 | 0.00 |
| 15 | 04/12 | 10:00 | 59 | 33 | 39 | 30.36 | NNW | 7 | 0.00 |
| 16 | 04/12 | 09:00 | 56 | 39 | 55 | 30.36 | NW | 2 | 0.00 |
| 17 | 04/12 | 08:00 | 47 | 39 | 75 | 30.35 | NNE | 0 | 0.00 |
| 18 | 04/12 | 07:00 | 44 | 35 | 71 | 30.32 | NNE | 0 | 0.00 |
| 19 | 04/12 | 06:00 | 46 | 33 | 62 | 30.30 | NNE | 0 | 0.00 |
| 20 | 04/12 | 05:00 | 50 | 32 | 51 | 30.28 | NNE | 0 | 0.00 |
| 21 | 04/12 | 04:00 | 54 | 32 | 44 | 30.27 | NNE | 2 | 0.00 |
| 22 | 04/12 | 03:00 | 55 | 33 | 44 | 30.26 | NNE | 3 | 0.00 |
| 23 | 04/12 | 02:00 | 58 | 36 | 44 | 30.26 | NE | 6 | 0.00 |
| 24 | 04/12 | 01:00 | 56 | 44 | 66 | 30.22 | NNW | 2 | 0.00 |